PST: 23:15 MST: 00:15 CST: 01:15 EST: 02:15 LDN: 07:15 UTC: 07:15
User Agent: CCBot/2.0 (http://commoncrawl.org/faq/)
IP Address: 54.145.51.250
Hostname: ec2-54-145-51-250.compute-1.amazonaws.com

METAR:
KBFI 110653Z 14003KT 10SM CLR 00/M01 A3034 RMK AO2 SLP272 T00001011
KBFI 110553Z 00000KT 10SM CLR 01/M01 A3034 RMK AO2 SLP273 T00111011 10083 20011 53004
KBFI 110453Z 00000KT 10SM CLR 02/M01 A3032 RMK AO2 SLP268 T00221006
KBFI 110353Z 00000KT 10SM CLR 03/M01 A3032 RMK AO2 SLP267 T00281006

TAF:
KBFI 110535Z 1106/1206 00000KT P6SM SKC
FM 111200 14003KT 2SM BR SCT002 TEMPO 1113/1117 3/4SM BR VV002
FM 112000 VRB03KT P6SM SKC
FM 120400 15005KT P6SM BKN200

KBFI 102329Z 1100/1124 VRB03KT P6SM SKC
FM 110800 00000KT 2SM BR FEW002
FM 111100 00000KT 1/4SM FG VV001
FM 111900 00000KT 2SM BR OVC003
FM 112100 VRB03KT P6SM FEW010 SCT250

KBFI 101741Z 1018/1118 VRB03KT P6SM SCT250
FM 110800 00000KT 2SM BR FEW002
FM 111100 04004KT 1/4SM FG VV001

KBFI 101120Z 1012/1112 13003KT 5SM BR BKN200
FM 102100 34004KT P6SM SKC
FM 110700 14003KT 3SM BR SCT002

KBFI 100527Z 1006/1106 13004KT 5SM BR BKN200
FM 101200 00000KT 3/4SM BR VV002
FM 101900 VRB03KT 2SM BR BKN003
FM 102100 VRB03KT P6SM SKC
FM 110500 14003KT 1SM BR SCT002